Naples, Italy

8:20 PM CET on March 04, 2015 (GMT +0100)
Naples | Change Station
CLOSE
Current Station
Personal Weather Station
Location: Naples, Campania
Elevation: 108 ft
Nearby Weather Stations
Active Advisory: Rain

Elev 108 ft 40.84 °N, 14.25 °E | Updated 5 minutes ago

Light Rain
Light Rain Mist
54.0 °F
Feels Like 54.0 °F
N
0.0
Wind Variable Wind from SW
Gusts 0.0 mph

Today
High -- | Low -- °F
--% Chance of Precip.
Yesterday
High -- | Low -- °F
Precip. -- in
6:32 AM 5:56 PM
Waxing Gibbous, 99% visible
Pressure 30.01 in
Visibility 1.9 miles
Clouds Scattered Clouds 1300 ft
Scattered Clouds 1800 ft
Mostly Cloudy 6000 ft
Dew Point 51 °F
Humidity 90%
Rainfall 0.47 in
Snow Depth Not available.
UV 0 out of 12
Pollen Not available.
Air Quality Not available.
Flu Activity Not available.
METAR LIRM 041855Z 00000KT 3000 -RA BR SCT013 SCT018 BKN060 13/11 Q1016

More Conditions Fewer Conditions

Pressure 30.01 in
Visibility 1.9 miles
Clouds Scattered Clouds 1300 ft
Scattered Clouds 1800 ft
Mostly Cloudy 6000 ft
Dew Point 51 °F
Humidity 90%
Rainfall 0.47 in
Snow Depth Not available.
UV 0 out of 12
Pollen Not available.
Air Quality Not available.
Flu Activity Not available.
METAR LIRM 041855Z 00000KT 3000 -RA BR SCT013 SCT018 BKN060 13/11 Q1016

More Conditions Fewer Conditions

10-Day Weather Forecast

Almanac

Astronomy

Mar. 04, 2015 Rise Set
Actual Time
Civil Twilight
Nautical Twilight
Astronomical Twilight
Moon
Length of Visible Light
Length of Day
Tomorrow will be .
, % of the Moon is Illuminated

Today's Extremes

Country Highs Country Lows

Community

WunderPhotos

Upload Photos

1,802,552 photos uploaded!

WunderBlogs® & News

Nearby

Air Quality

  Air Quality AQ Index Pollutant
Not available.

Snow Depth

Station Depth Elevation

Earthquake Activity

City Distance Mag. Time & Date
Minimum magnitude displayed is 2.5.

Coastal Water Temperatures

Place Temperature

Nearby Weather Stations